Richmond Hill, GA (31324)

5:25 AM EST on February 14, 2016 (GMT -0500)
Sweet Hill, Keller Community | | Change Station
CLOSE
Current Station
Personal Weather Station
Location: Richmond Hill, GA
Elevation: 16 ft
Nearby Weather Stations
Active Advisory: Flood Warning

Elev 16 ft 31.83 °N, 81.26 °W | Updated 8 minutes ago

Clear
Clear
36.1 °F
Feels Like 36 °F
N
0.0
Wind Variable Wind from NE
Gusts 3.0 mph

Today
High -- | Low -- °F
--% Chance of Precip.
Yesterday
High -- | Low -- °F
Precip. -- in
Pressure 30.34 in
Visibility 10.0 miles
Clouds Clear
Windchill 36 °F
Dew Point 31 °F
Humidity 82%
Rainfall 0.00 in
Snow Depth Not available.
7:08 AM 6:10 PM
Waxing Crescent, 40% visible
METAR KSVN 140958Z AUTO 03009KT 10SM CLR 02/M04 A3033 RMK AO2 SLP274 T00211042 $
Pressure 30.34 in
Visibility 10.0 miles
Clouds Clear
Windchill 36 °F
Dew Point 31 °F
Humidity 82%
Rainfall 0.00 in
Snow Depth Not available.
7:08 AM 6:10 PM
Waxing Crescent, 40% visible
METAR KSVN 140958Z AUTO 03009KT 10SM CLR 02/M04 A3033 RMK AO2 SLP274 T00211042 $

10-Day Weather Forecast

Almanac

Astronomy

Feb. 14, 2016 Rise Set
Actual Time
Civil Twilight
Nautical Twilight
Astronomical Twilight
Moon
Length of Visible Light
Length of Day
Tomorrow will be .
, % of the Moon is Illuminated

Today's Extremes

State Highs State Lows

Community

WunderPhotos

Upload Photos

1,892,765 photos uploaded!

WunderBlog® & News

Nearby

Air Quality

  Air Quality AQ Index Pollutant
Not available.

Snow Depth

Station Depth Elevation

Earthquake Activity

City Distance Mag. Time & Date
Minimum magnitude displayed is 2.5.

Coastal Water Temperatures

Place Temperature

Stations

Nearby Weather Stations

Station Location Temp. Windchill Dew Point Humidity Wind Precip. Elev Updated Type
                   

Watches & Warnings

Flood Warning
Issued: 10:05 PM EST Feb. 13, 2016 – National Weather Service

The Flood Warning continues for
the Ogeechee river near Eden.
* At 9 PM Saturday the stage was 12.2 feet.
* Flood stage is 11.0 feet.
* Minor flooding is occurring.
* Forecast, the river will continue to fall.
* At 12.0 feet, water encroaches on some homes along dashers Landing
Road and Yarbrough Landing Road. Davis Landing Road also becomes
impassable.


Lat... Lon 3246 8160 3252 8152 3227 8140 3208 8133
          3206 8143 3223 8150